createdAt,value
2022-09-23T00:02:04.353Z,6.00
2022-09-23T00:04:30.998Z,6.00
2022-09-23T00:06:57.658Z,6.00
2022-09-23T00:09:24.436Z,5.90
2022-09-23T00:11:51.015Z,5.90
2022-09-23T00:14:17.646Z,5.90
2022-09-23T00:16:44.298Z,5.90
2022-09-23T00:19:10.969Z,5.90
2022-09-23T00:21:37.643Z,5.90
2022-09-23T00:24:04.413Z,5.90
2022-09-23T00:26:31.011Z,5.80
2022-09-23T00:28:57.603Z,5.80
2022-09-23T00:31:25.941Z,5.80
2022-09-23T00:33:57.031Z,5.80
2022-09-23T00:36:25.546Z,5.80
2022-09-23T00:38:52.955Z,5.80
2022-09-23T00:41:19.556Z,5.80
2022-09-23T00:43:51.025Z,5.80
2022-09-23T00:46:23.281Z,5.70
2022-09-23T00:48:53.284Z,5.70
2022-09-23T00:51:21.758Z,5.70
2022-09-23T00:53:50.205Z,5.70
2022-09-23T00:56:17.542Z,5.70
2022-09-23T00:58:45.401Z,5.80
2022-09-23T01:01:13.892Z,5.80
2022-09-23T01:03:42.913Z,5.80
2022-09-23T01:06:10.308Z,5.80
2022-09-23T01:08:37.645Z,5.80
2022-09-23T01:11:14.719Z,5.80
2022-09-23T01:13:47.636Z,5.70
2022-09-23T01:16:17.191Z,5.70
2022-09-23T01:18:59.088Z,5.70
2022-09-23T01:21:45.102Z,5.60
2022-09-23T01:24:23.822Z,5.60
2022-09-23T01:26:59.429Z,5.60
2022-09-23T01:29:45.402Z,5.50
2022-09-23T01:32:11.950Z,5.40
2022-09-23T01:34:44.825Z,5.40
2022-09-23T01:40:01.675Z,5.30
2022-09-23T01:42:36.428Z,5.30
2022-09-23T01:45:10.992Z,5.30
2022-09-23T01:47:39.882Z,5.30
2022-09-23T01:50:28.077Z,5.20
2022-09-23T01:52:56.504Z,5.20
2022-09-23T01:55:27.612Z,7.30
2022-09-23T01:58:23.692Z,5.20
2022-09-23T02:00:54.074Z,5.20
2022-09-23T02:03:27.416Z,5.20
2022-09-23T02:06:01.418Z,5.20
2022-09-23T02:08:41.768Z,5.10
2022-09-23T02:11:10.557Z,5.00
2022-09-23T02:13:37.193Z,4.90
2022-09-23T02:16:08.645Z,4.80
2022-09-23T02:18:42.556Z,4.80
2022-09-23T02:21:09.705Z,4.80
2022-09-23T02:23:40.894Z,4.80
2022-09-23T02:26:26.391Z,4.80
2022-09-23T02:29:07.921Z,4.80
2022-09-23T02:31:34.776Z,4.80
2022-09-23T02:34:22.009Z,4.90
2022-09-23T02:36:54.787Z,4.90
2022-09-23T02:39:23.860Z,4.90
2022-09-23T02:41:53.524Z,4.90
2022-09-23T02:44:20.415Z,5.00
2022-09-23T02:46:47.199Z,6.20
2022-09-23T02:49:19.346Z,5.00
2022-09-23T02:51:46.681Z,5.00
2022-09-23T02:54:16.694Z,5.00
2022-09-23T02:56:43.747Z,5.00
2022-09-23T02:59:11.044Z,5.00
2022-09-23T03:01:56.600Z,5.10
2022-09-23T03:04:35.155Z,5.00
2022-09-23T03:07:09.205Z,5.00
2022-09-23T03:09:40.275Z,5.00
2022-09-23T03:12:22.270Z,4.90
2022-09-23T03:14:52.060Z,4.90
2022-09-23T03:17:39.388Z,4.90
2022-09-23T03:20:10.062Z,4.90
2022-09-23T03:22:43.850Z,5.00
2022-09-23T03:25:13.014Z,5.00
2022-09-23T03:27:42.384Z,5.10
2022-09-23T03:30:09.967Z,6.10
2022-09-23T03:32:37.820Z,5.00
2022-09-23T03:35:05.372Z,5.00
2022-09-23T03:37:44.653Z,5.00
2022-09-23T03:40:20.621Z,5.00
2022-09-23T03:42:50.287Z,5.00
2022-09-23T03:45:19.866Z,5.00
2022-09-23T03:47:46.534Z,4.90
2022-09-23T03:50:13.933Z,4.80
2022-09-23T03:52:40.555Z,4.90
2022-09-23T03:55:07.609Z,4.80
2022-09-23T03:57:34.316Z,4.80
2022-09-23T04:00:00.970Z,4.80
2022-09-23T04:02:27.645Z,4.60
2022-09-23T04:04:56.005Z,4.60
2022-09-23T04:07:22.643Z,4.60
2022-09-23T04:09:49.310Z,4.60
2022-09-23T04:12:16.817Z,4.60
2022-09-23T04:14:43.818Z,4.60
2022-09-23T04:17:12.485Z,4.50
2022-09-23T04:19:39.077Z,4.50
2022-09-23T04:22:07.445Z,4.60
2022-09-23T04:24:34.128Z,4.60
2022-09-23T04:27:00.909Z,4.60
2022-09-23T04:29:27.542Z,4.50
2022-09-23T04:31:54.491Z,4.50
2022-09-23T04:34:21.274Z,4.50
2022-09-23T04:36:48.446Z,4.40
2022-09-23T04:39:15.947Z,4.50
2022-09-23T04:41:43.476Z,4.50
2022-09-23T04:44:11.190Z,4.40
2022-09-23T04:46:39.329Z,4.40
2022-09-23T04:49:06.771Z,4.60
2022-09-23T04:51:33.819Z,6.60
2022-09-23T04:54:00.695Z,5.70
2022-09-23T04:56:28.828Z,6.50
2022-09-23T04:58:58.352Z,7.30
2022-09-23T05:01:27.169Z,4.40
2022-09-23T05:03:54.958Z,6.80
2022-09-23T05:06:22.067Z,5.70
2022-09-23T05:08:52.012Z,7.00
2022-09-23T05:11:18.985Z,6.30
2022-09-23T05:13:46.982Z,5.80
2022-09-23T05:16:13.730Z,5.20
2022-09-23T05:18:42.877Z,6.00
2022-09-23T05:21:10.506Z,7.70
2022-09-23T05:23:37.847Z,6.00
2022-09-23T05:26:05.779Z,6.20
2022-09-23T05:28:33.246Z,4.20
2022-09-23T05:31:05.364Z,7.30
2022-09-23T05:33:32.603Z,4.30
2022-09-23T05:35:59.395Z,7.00
2022-09-23T05:38:26.031Z,4.00
2022-09-23T05:40:59.574Z,4.40
2022-09-23T05:43:26.449Z,4.40
2022-09-23T05:46:02.273Z,4.50
2022-09-23T05:48:31.795Z,4.70
2022-09-23T05:50:58.452Z,4.60
2022-09-23T05:53:25.392Z,4.70
2022-09-23T05:55:52.159Z,4.80
2022-09-23T05:58:18.888Z,4.80
2022-09-23T06:00:45.453Z,4.90
2022-09-23T06:03:13.174Z,4.90
2022-09-23T06:05:40.152Z,5.00
2022-09-23T06:08:07.374Z,5.00
2022-09-23T06:10:37.789Z,5.10
2022-09-23T06:13:04.442Z,5.20
2022-09-23T06:15:31.153Z,5.30
2022-09-23T06:17:57.730Z,5.40
2022-09-23T06:20:24.658Z,5.50
2022-09-23T06:22:55.088Z,5.60
2022-09-23T06:25:23.131Z,5.70
2022-09-23T06:27:54.450Z,5.80
2022-09-23T06:30:24.769Z,5.80
2022-09-23T06:32:55.123Z,5.90
2022-09-23T06:35:27.473Z,6.00
2022-09-23T06:37:54.788Z,6.10
2022-09-23T06:40:22.603Z,6.30
2022-09-23T06:42:56.591Z,7.20
2022-09-23T06:45:23.540Z,6.40
2022-09-23T06:47:56.171Z,7.70
2022-09-23T06:50:24.106Z,8.10
2022-09-23T06:52:51.501Z,6.80
2022-09-23T06:55:18.156Z,6.90
2022-09-23T06:57:44.933Z,6.90
2022-09-23T07:00:12.025Z,7.10
2022-09-23T07:02:40.529Z,7.20
2022-09-23T07:05:07.344Z,7.40
2022-09-23T07:07:35.978Z,7.50
2022-09-23T07:10:02.807Z,7.70
2022-09-23T07:12:29.368Z,7.90
2022-09-23T07:14:57.345Z,9.40
2022-09-23T07:17:24.537Z,8.20
2022-09-23T07:19:51.632Z,8.40
2022-09-23T07:22:18.560Z,8.60
2022-09-23T07:24:46.748Z,8.70
2022-09-23T07:27:18.740Z,8.80
2022-09-23T07:29:48.816Z,9.00
2022-09-23T07:32:15.871Z,9.10
2022-09-23T07:34:43.314Z,11.10
2022-09-23T07:37:10.640Z,9.40
2022-09-23T07:39:37.445Z,9.50
2022-09-23T07:42:05.214Z,9.50
2022-09-23T07:44:32.104Z,9.70
2022-09-23T07:46:59.037Z,9.80
2022-09-23T07:49:26.344Z,9.90
2022-09-23T07:51:53.173Z,10.00
2022-09-23T07:54:19.986Z,10.10
2022-09-23T07:56:46.908Z,10.20
2022-09-23T07:59:18.228Z,10.20
2022-09-23T08:01:48.914Z,10.20
2022-09-23T08:04:17.810Z,10.30
2022-09-23T08:06:48.417Z,10.30
2022-09-23T08:09:15.918Z,10.30
2022-09-23T08:11:42.556Z,10.40
2022-09-23T08:14:09.791Z,10.50
2022-09-23T08:16:37.108Z,10.50
2022-09-23T08:21:30.255Z,10.70
2022-09-23T08:23:56.978Z,10.70
2022-09-23T08:26:23.700Z,10.80
2022-09-23T08:28:54.472Z,10.90
2022-09-23T08:31:24.194Z,12.50
2022-09-23T08:33:55.653Z,11.00
2022-09-23T08:36:22.385Z,11.10
2022-09-23T08:38:49.119Z,11.20
2022-09-23T08:41:34.674Z,11.30
2022-09-23T08:44:07.358Z,11.40
2022-09-23T08:46:40.651Z,11.50
2022-09-23T08:49:09.136Z,11.60
2022-09-23T08:51:39.824Z,11.60
2022-09-23T08:54:09.450Z,11.70
2022-09-23T08:56:37.242Z,12.30
2022-09-23T08:59:09.527Z,12.30
2022-09-23T09:01:36.136Z,11.90
2022-09-23T09:04:12.638Z,12.10
2022-09-23T09:06:53.595Z,12.10
2022-09-23T09:09:29.173Z,12.20
2022-09-23T09:12:00.321Z,12.30
2022-09-23T09:14:42.415Z,12.40
2022-09-23T09:17:21.064Z,12.30
2022-09-23T09:19:55.370Z,12.40
2022-09-23T09:22:39.805Z,12.60
2022-09-23T09:25:14.648Z,12.60
2022-09-23T09:27:41.313Z,12.80
2022-09-23T09:30:14.603Z,14.20
2022-09-23T09:32:55.077Z,13.00
2022-09-23T09:35:25.410Z,13.10
2022-09-23T09:37:53.565Z,13.20
2022-09-23T09:40:20.761Z,13.20
2022-09-23T09:42:49.203Z,13.40
2022-09-23T09:45:34.983Z,13.70
2022-09-23T09:48:03.416Z,13.50
2022-09-23T09:50:50.284Z,13.50
2022-09-23T09:53:25.421Z,13.80
2022-09-23T09:56:05.659Z,13.80
2022-09-23T09:58:34.548Z,13.90
2022-09-23T10:01:01.566Z,14.40
2022-09-23T10:03:37.743Z,14.40
2022-09-23T10:06:14.024Z,14.20
2022-09-23T10:08:40.656Z,14.20
2022-09-23T10:11:17.988Z,14.40
2022-09-23T10:14:02.844Z,14.40
2022-09-23T10:16:31.821Z,14.40
2022-09-23T10:19:02.646Z,14.50
2022-09-23T10:21:34.834Z,14.70
2022-09-23T10:24:03.031Z,14.80
2022-09-23T10:26:32.382Z,14.90
2022-09-23T10:29:01.440Z,15.00
2022-09-23T10:31:35.267Z,15.50
2022-09-23T10:34:03.277Z,15.20
2022-09-23T10:36:31.141Z,15.40
2022-09-23T10:39:20.544Z,15.60
2022-09-23T10:42:20.128Z,15.60
2022-09-23T10:45:16.925Z,15.70
2022-09-23T10:48:03.411Z,16.50
2022-09-23T10:50:39.595Z,16.10
2022-09-23T10:53:15.222Z,16.30
2022-09-23T10:55:44.595Z,16.40
2022-09-23T10:58:23.548Z,16.50
2022-09-23T11:01:05.300Z,16.60
2022-09-23T11:03:34.716Z,16.70
2022-09-23T11:06:20.199Z,16.80
2022-09-23T11:09:05.797Z,16.90
2022-09-23T11:11:53.031Z,17.00
2022-09-23T11:14:31.658Z,17.00
2022-09-23T11:17:16.566Z,17.10
2022-09-23T11:20:02.011Z,18.60
2022-09-23T11:22:45.608Z,17.20
2022-09-23T11:25:16.771Z,17.20
2022-09-23T11:27:59.087Z,17.20
2022-09-23T11:30:30.919Z,17.30
2022-09-23T11:32:58.336Z,19.20
2022-09-23T11:35:31.306Z,17.30
2022-09-23T11:38:27.882Z,17.40
2022-09-23T11:41:03.879Z,17.50
2022-09-23T11:43:34.333Z,17.50
2022-09-23T11:46:04.067Z,17.50
2022-09-23T11:48:36.232Z,17.60
2022-09-23T11:51:16.596Z,17.70
2022-09-23T11:53:47.377Z,17.80
2022-09-23T11:56:32.593Z,17.80
2022-09-23T11:59:21.401Z,17.90
2022-09-23T12:02:11.004Z,17.90
2022-09-23T12:04:56.106Z,17.90
2022-09-23T12:07:29.055Z,17.90
2022-09-23T12:10:06.631Z,17.90
2022-09-23T12:12:47.735Z,18.00
2022-09-23T12:15:27.082Z,18.20
2022-09-23T12:17:59.207Z,18.30
2022-09-23T12:20:41.537Z,19.60
2022-09-23T12:23:08.196Z,18.40
2022-09-23T12:25:34.809Z,18.50
2022-09-23T12:28:03.630Z,18.50
2022-09-23T12:30:32.134Z,20.10
2022-09-23T12:33:16.236Z,18.60
2022-09-23T12:35:45.335Z,18.60
2022-09-23T12:38:19.301Z,18.60
2022-09-23T12:40:46.437Z,18.60
2022-09-23T12:43:31.425Z,18.70
2022-09-23T12:46:17.209Z,18.80
2022-09-23T12:48:44.881Z,18.90
2022-09-23T12:51:16.312Z,18.90
2022-09-23T12:53:53.039Z,19.00
2022-09-23T12:56:24.175Z,19.00
2022-09-23T12:58:50.913Z,19.10
2022-09-23T13:01:22.185Z,19.10
2022-09-23T13:04:14.779Z,19.00
2022-09-23T13:06:53.311Z,19.00
2022-09-23T13:09:25.873Z,18.90
2022-09-23T13:11:53.341Z,18.90
2022-09-23T13:14:26.720Z,18.90
2022-09-23T13:16:55.308Z,19.00
2022-09-23T13:19:27.757Z,19.70
2022-09-23T13:21:54.293Z,19.20
2022-09-23T13:24:25.036Z,19.90
2022-09-23T13:27:10.387Z,19.30
2022-09-23T13:29:42.778Z,19.40
2022-09-23T13:32:13.005Z,19.30
2022-09-23T13:34:39.855Z,19.30
2022-09-23T13:37:23.421Z,19.10
2022-09-23T13:39:50.257Z,19.10
2022-09-23T13:42:27.384Z,19.00
2022-09-23T13:44:57.473Z,19.00
2022-09-23T13:47:25.151Z,19.10
2022-09-23T13:49:51.875Z,19.10
2022-09-23T13:52:23.316Z,19.00
2022-09-23T13:54:50.393Z,21.30
2022-09-23T13:57:26.447Z,20.20
2022-09-23T13:59:53.618Z,18.60
2022-09-23T14:02:20.278Z,18.50
2022-09-23T14:04:47.055Z,18.20
2022-09-23T14:07:14.828Z,19.40
2022-09-23T14:09:42.733Z,17.90
2022-09-23T14:12:10.985Z,17.80
2022-09-23T14:14:39.490Z,19.30
2022-09-23T14:17:07.529Z,19.70
2022-09-23T14:19:35.274Z,18.00
2022-09-23T14:22:01.932Z,18.70
2022-09-23T14:24:36.072Z,17.90
2022-09-23T14:27:15.887Z,17.90
2022-09-23T14:29:44.031Z,18.00
2022-09-23T14:32:25.333Z,19.10
2022-09-23T14:35:00.875Z,18.00
2022-09-23T14:37:55.368Z,17.90
2022-09-23T14:40:32.231Z,17.90
2022-09-23T14:43:22.703Z,17.90
2022-09-23T14:45:58.780Z,17.90
2022-09-23T14:48:35.002Z,17.80
2022-09-23T14:51:04.219Z,17.80
2022-09-23T14:53:37.058Z,17.80
2022-09-23T14:56:06.729Z,17.70
2022-09-23T14:58:42.497Z,17.70
2022-09-23T15:01:26.113Z,17.70
2022-09-23T15:03:53.004Z,17.60
2022-09-23T15:06:20.836Z,17.70
2022-09-23T15:08:48.513Z,17.70
2022-09-23T15:11:15.082Z,17.80
2022-09-23T15:13:44.157Z,17.70
2022-09-23T15:16:12.794Z,17.80
2022-09-23T15:18:41.552Z,17.70
2022-09-23T15:21:18.441Z,18.10
2022-09-23T15:23:49.389Z,17.50
2022-09-23T15:26:23.473Z,17.50
2022-09-23T15:28:52.008Z,17.30
2022-09-23T15:31:20.212Z,17.30
2022-09-23T15:33:47.804Z,17.30
2022-09-23T15:36:17.029Z,17.30
2022-09-23T15:38:43.758Z,17.00
2022-09-23T15:41:10.514Z,17.50
2022-09-23T15:43:38.913Z,17.00
2022-09-23T15:46:07.017Z,16.90
2022-09-23T15:48:39.396Z,16.90
2022-09-23T15:51:08.050Z,16.90
2022-09-23T15:53:35.500Z,16.80
2022-09-23T15:56:02.104Z,16.80
2022-09-23T15:58:28.737Z,16.70
2022-09-23T16:00:57.120Z,16.60
2022-09-23T16:03:30.430Z,16.90
2022-09-23T16:06:02.262Z,16.50
2022-09-23T16:08:29.373Z,16.40
2022-09-23T16:10:56.220Z,17.10
2022-09-23T16:13:23.030Z,16.40
2022-09-23T16:15:49.944Z,17.10
2022-09-23T16:18:16.542Z,16.30
2022-09-23T16:20:47.621Z,16.40
2022-09-23T16:23:34.235Z,16.20
2022-09-23T16:26:02.562Z,16.20
2022-09-23T16:28:29.130Z,16.30
2022-09-23T16:30:55.691Z,16.20
2022-09-23T16:33:22.353Z,16.20
2022-09-23T16:35:49.292Z,16.10
2022-09-23T16:38:16.099Z,16.30
2022-09-23T16:40:47.040Z,17.90
2022-09-23T16:43:13.978Z,16.00
2022-09-23T16:45:40.753Z,17.20
2022-09-23T16:48:07.407Z,17.00
2022-09-23T16:50:34.264Z,15.90
2022-09-23T16:53:00.894Z,15.80
2022-09-23T16:55:27.566Z,15.80
2022-09-23T16:57:54.619Z,15.80
2022-09-23T17:00:40.420Z,16.20
2022-09-23T17:03:25.611Z,15.90
2022-09-23T17:05:53.993Z,15.60
2022-09-23T17:08:20.702Z,15.60
2022-09-23T17:10:55.046Z,15.60
2022-09-23T17:13:21.705Z,15.90
2022-09-23T17:15:48.343Z,15.20
2022-09-23T17:18:19.330Z,16.70
2022-09-23T17:21:06.495Z,15.80
2022-09-23T17:23:35.528Z,15.00
2022-09-23T17:26:02.463Z,14.80
2022-09-23T17:28:29.271Z,14.80
2022-09-23T17:31:00.091Z,15.20
2022-09-23T17:33:27.373Z,14.50
2022-09-23T17:35:54.532Z,14.40
2022-09-23T17:38:25.601Z,13.90
2022-09-23T17:40:55.849Z,14.30
2022-09-23T17:43:25.797Z,14.30
2022-09-23T17:45:54.351Z,15.00
2022-09-23T17:48:21.651Z,14.00
2022-09-23T17:50:58.209Z,13.80
2022-09-23T17:53:25.931Z,13.60
2022-09-23T17:55:59.523Z,13.40
2022-09-23T17:58:29.990Z,13.30
2022-09-23T18:00:56.993Z,13.70
2022-09-23T18:03:24.572Z,13.10
2022-09-23T18:05:51.656Z,13.00
2022-09-23T18:08:18.256Z,13.40
2022-09-23T18:10:44.889Z,12.70
2022-09-23T18:13:11.463Z,12.70
2022-09-23T18:15:39.481Z,13.40
2022-09-23T18:18:06.552Z,12.50
2022-09-23T18:20:33.099Z,12.50
2022-09-23T18:22:59.686Z,12.40
2022-09-23T18:25:39.284Z,13.20
2022-09-23T18:28:06.489Z,12.40
2022-09-23T18:30:33.485Z,13.90
2022-09-23T18:33:00.223Z,12.30
2022-09-23T18:35:26.836Z,13.10
2022-09-23T18:37:53.414Z,12.40
2022-09-23T18:40:20.085Z,12.40
2022-09-23T18:42:47.181Z,12.40
2022-09-23T18:45:13.711Z,14.50
2022-09-23T18:47:58.844Z,12.40
2022-09-23T18:50:54.791Z,12.40
2022-09-23T18:53:21.339Z,12.40
2022-09-23T18:55:48.174Z,12.30
2022-09-23T18:58:14.753Z,12.40
2022-09-23T19:00:41.687Z,11.80
2022-09-23T19:03:08.362Z,12.20
2022-09-23T19:05:34.953Z,12.20
2022-09-23T19:08:01.750Z,12.20
2022-09-23T19:10:28.423Z,12.10
2022-09-23T19:12:54.997Z,12.20
2022-09-23T19:15:21.591Z,12.80
2022-09-23T19:17:48.156Z,12.00
2022-09-23T19:20:14.718Z,12.10
2022-09-23T19:22:45.684Z,11.80
2022-09-23T19:25:12.426Z,11.80
2022-09-23T19:27:40.136Z,11.80
2022-09-23T19:30:07.095Z,11.70
2022-09-23T19:32:34.637Z,11.60
2022-09-23T19:35:01.362Z,11.60
2022-09-23T19:37:27.917Z,11.50
2022-09-23T19:39:54.541Z,11.50
2022-09-23T19:42:21.514Z,13.80
2022-09-23T19:44:48.142Z,13.90
2022-09-23T19:47:17.365Z,11.60
2022-09-23T19:49:44.137Z,11.50
2022-09-23T19:52:10.874Z,12.90
2022-09-23T19:54:37.705Z,11.50
2022-09-23T19:57:04.452Z,13.70
2022-09-23T19:59:31.423Z,12.80
2022-09-23T20:01:58.068Z,14.30
2022-09-23T20:04:24.924Z,13.50
2022-09-23T20:06:52.035Z,13.00
2022-09-23T20:09:18.746Z,11.40
2022-09-23T20:11:45.338Z,11.30
2022-09-23T20:14:13.826Z,11.30
2022-09-23T20:16:40.646Z,11.20
2022-09-23T20:19:07.664Z,13.90
2022-09-23T20:21:36.775Z,11.10
2022-09-23T20:24:08.370Z,11.10
2022-09-23T20:26:53.975Z,10.90
2022-09-23T20:29:21.032Z,12.20
2022-09-23T20:31:47.868Z,13.10
2022-09-23T20:34:15.785Z,11.00
2022-09-23T20:36:43.069Z,10.80
2022-09-23T20:39:11.884Z,10.80
2022-09-23T20:41:39.371Z,10.90
2022-09-23T20:44:12.711Z,11.00
2022-09-23T20:46:42.958Z,10.90
2022-09-23T20:49:13.640Z,13.10
2022-09-23T20:51:40.495Z,10.90
2022-09-23T20:54:12.083Z,10.90
2022-09-23T20:56:40.091Z,11.50
2022-09-23T20:59:06.884Z,10.70
2022-09-23T21:01:35.192Z,10.90
2022-09-23T21:04:04.752Z,11.90
2022-09-23T21:06:31.460Z,10.60
2022-09-23T21:08:58.085Z,13.70
2022-09-23T21:11:26.447Z,12.90
2022-09-23T21:13:53.040Z,13.30
2022-09-23T21:16:21.507Z,10.40
2022-09-23T21:18:48.770Z,12.20
2022-09-23T21:21:15.460Z,10.40
2022-09-23T21:23:43.310Z,12.80
2022-09-23T21:26:11.281Z,12.40
2022-09-23T21:28:42.146Z,10.50
2022-09-23T21:31:10.240Z,10.40
2022-09-23T21:33:37.563Z,11.70
2022-09-23T21:36:05.536Z,10.40
2022-09-23T21:38:35.914Z,10.30
2022-09-23T21:41:03.768Z,10.30
2022-09-23T21:43:34.498Z,10.30
2022-09-23T21:46:02.353Z,13.40
2022-09-23T21:48:49.884Z,10.30
2022-09-23T21:51:19.346Z,10.20
2022-09-23T21:53:46.895Z,10.30
2022-09-23T21:56:20.310Z,10.20
2022-09-23T21:58:47.556Z,10.30
2022-09-23T22:01:36.462Z,10.30
2022-09-23T22:04:13.998Z,10.20
2022-09-23T22:06:40.906Z,10.40
2022-09-23T22:09:09.801Z,10.40
2022-09-23T22:11:55.584Z,10.40
2022-09-23T22:14:26.288Z,10.40
2022-09-23T22:16:59.009Z,10.40
2022-09-23T22:19:26.963Z,10.40
2022-09-23T22:21:54.181Z,10.30
2022-09-23T22:24:20.752Z,10.40
2022-09-23T22:26:47.905Z,12.00
2022-09-23T22:29:34.002Z,12.20
2022-09-23T22:32:19.841Z,10.40
2022-09-23T22:34:50.137Z,10.20
2022-09-23T22:37:19.937Z,10.30
2022-09-23T22:39:46.558Z,11.70
2022-09-23T22:42:13.185Z,13.50
2022-09-23T22:44:40.095Z,10.30
2022-09-23T22:47:06.837Z,13.20
2022-09-23T22:49:33.615Z,10.50
2022-09-23T22:52:00.326Z,12.90
2022-09-23T22:54:32.704Z,10.50
2022-09-23T22:57:03.331Z,10.60
2022-09-23T22:59:30.177Z,11.30
2022-09-23T23:01:57.135Z,11.40
2022-09-23T23:04:24.071Z,10.50
2022-09-23T23:06:50.993Z,13.50
2022-09-23T23:09:18.419Z,12.20
2022-09-23T23:11:45.419Z,10.50
2022-09-23T23:14:12.696Z,13.30
2022-09-23T23:16:39.555Z,10.60
2022-09-23T23:19:09.472Z,12.80
2022-09-23T23:21:36.708Z,12.00
2022-09-23T23:24:04.494Z,10.50
2022-09-23T23:26:32.787Z,13.40
2022-09-23T23:28:59.876Z,10.60
2022-09-23T23:31:28.094Z,11.90
2022-09-23T23:33:55.000Z,10.60
2022-09-23T23:36:22.365Z,10.60
2022-09-23T23:38:49.889Z,10.70
2022-09-23T23:41:17.682Z,10.60
2022-09-23T23:43:46.001Z,10.60
2022-09-23T23:46:13.924Z,12.50
2022-09-23T23:48:41.931Z,10.60
2022-09-23T23:51:10.533Z,11.40
2022-09-23T23:53:38.198Z,12.50
2022-09-23T23:56:05.857Z,10.40
2022-09-23T23:58:32.666Z,10.40
